sensor_id;sensor_type;location;lat;lon;timestamp;temperature;humidity
52859;DHT22;38721;53.098;6.596;2023-05-29T00:00:17;9.10;99.90
52859;DHT22;38721;53.098;6.596;2023-05-29T00:02:43;9.10;99.90
52859;DHT22;38721;53.098;6.596;2023-05-29T00:05:18;9.00;99.90
52859;DHT22;38721;53.098;6.596;2023-05-29T00:07:44;9.00;99.90
52859;DHT22;38721;53.098;6.596;2023-05-29T00:10:10;9.10;99.90
52859;DHT22;38721;53.098;6.596;2023-05-29T00:12:37;9.00;99.90
52859;DHT22;38721;53.098;6.596;2023-05-29T00:15:04;8.90;99.90
52859;DHT22;38721;53.098;6.596;2023-05-29T00:17:30;8.90;99.90
52859;DHT22;38721;53.098;6.596;2023-05-29T00:19:59;8.80;99.90
52859;DHT22;38721;53.098;6.596;2023-05-29T00:22:26;8.80;99.90
52859;DHT22;38721;53.098;6.596;2023-05-29T00:24:52;8.70;99.90
52859;DHT22;38721;53.098;6.596;2023-05-29T00:27:18;8.70;99.90
52859;DHT22;38721;53.098;6.596;2023-05-29T00:29:44;8.60;99.90
52859;DHT22;38721;53.098;6.596;2023-05-29T00:32:13;8.60;99.90
52859;DHT22;38721;53.098;6.596;2023-05-29T00:34:38;8.60;99.90
52859;DHT22;38721;53.098;6.596;2023-05-29T00:37:04;8.60;99.90
52859;DHT22;38721;53.098;6.596;2023-05-29T00:39:30;8.60;99.90
52859;DHT22;38721;53.098;6.596;2023-05-29T00:41:56;8.60;99.90
52859;DHT22;38721;53.098;6.596;2023-05-29T00:44:22;8.50;99.90
52859;DHT22;38721;53.098;6.596;2023-05-29T00:46:50;8.50;99.90
52859;DHT22;38721;53.098;6.596;2023-05-29T00:49:18;8.50;99.90
52859;DHT22;38721;53.098;6.596;2023-05-29T00:51:44;8.40;99.90
52859;DHT22;38721;53.098;6.596;2023-05-29T00:54:13;8.40;99.90
52859;DHT22;38721;53.098;6.596;2023-05-29T00:56:41;8.30;99.90
52859;DHT22;38721;53.098;6.596;2023-05-29T00:59:09;8.20;99.90
52859;DHT22;38721;53.098;6.596;2023-05-29T01:01:35;8.20;99.90
52859;DHT22;38721;53.098;6.596;2023-05-29T01:04:03;8.20;99.90
52859;DHT22;38721;53.098;6.596;2023-05-29T01:06:32;8.20;99.90
52859;DHT22;38721;53.098;6.596;2023-05-29T01:09:00;8.10;99.90
52859;DHT22;38721;53.098;6.596;2023-05-29T01:14:19;8.20;99.90
52859;DHT22;38721;53.098;6.596;2023-05-29T01:16:59;8.10;99.90
52859;DHT22;38721;53.098;6.596;2023-05-29T01:28:44;8.30;99.90
52859;DHT22;38721;53.098;6.596;2023-05-29T01:31:13;8.50;99.90
52859;DHT22;38721;53.098;6.596;2023-05-29T01:33:42;8.50;99.90
52859;DHT22;38721;53.098;6.596;2023-05-29T01:36:09;8.40;99.90
52859;DHT22;38721;53.098;6.596;2023-05-29T01:38:35;8.40;99.90
52859;DHT22;38721;53.098;6.596;2023-05-29T01:41:01;8.40;99.90
52859;DHT22;38721;53.098;6.596;2023-05-29T01:43:29;8.40;99.90
52859;DHT22;38721;53.098;6.596;2023-05-29T01:45:55;8.30;99.90
52859;DHT22;38721;53.098;6.596;2023-05-29T01:48:22;8.30;99.90
52859;DHT22;38721;53.098;6.596;2023-05-29T01:50:49;8.30;99.90
52859;DHT22;38721;53.098;6.596;2023-05-29T01:53:15;8.30;99.90
52859;DHT22;38721;53.098;6.596;2023-05-29T01:55:42;8.30;99.90
52859;DHT22;38721;53.098;6.596;2023-05-29T01:58:07;8.30;99.90
52859;DHT22;38721;53.098;6.596;2023-05-29T02:00:34;8.40;99.90
52859;DHT22;38721;53.098;6.596;2023-05-29T02:03:00;8.40;99.90
52859;DHT22;38721;53.098;6.596;2023-05-29T02:05:26;8.30;99.90
52859;DHT22;38721;53.098;6.596;2023-05-29T02:07:51;8.30;99.90
52859;DHT22;38721;53.098;6.596;2023-05-29T02:10:17;8.30;99.90
52859;DHT22;38721;53.098;6.596;2023-05-29T02:12:43;8.40;99.90
52859;DHT22;38721;53.098;6.596;2023-05-29T02:15:08;8.40;99.90
52859;DHT22;38721;53.098;6.596;2023-05-29T02:17:34;8.40;99.90
52859;DHT22;38721;53.098;6.596;2023-05-29T02:20:01;8.40;99.90
52859;DHT22;38721;53.098;6.596;2023-05-29T02:22:27;8.40;99.90
52859;DHT22;38721;53.098;6.596;2023-05-29T02:24:52;8.40;99.90
52859;DHT22;38721;53.098;6.596;2023-05-29T02:27:18;8.30;99.90
52859;DHT22;38721;53.098;6.596;2023-05-29T02:29:44;8.30;99.90
52859;DHT22;38721;53.098;6.596;2023-05-29T02:32:12;8.20;99.90
52859;DHT22;38721;53.098;6.596;2023-05-29T02:34:37;8.20;99.90
52859;DHT22;38721;53.098;6.596;2023-05-29T02:37:03;8.20;99.90
52859;DHT22;38721;53.098;6.596;2023-05-29T02:39:29;8.20;99.90
52859;DHT22;38721;53.098;6.596;2023-05-29T02:41:57;8.20;99.90
52859;DHT22;38721;53.098;6.596;2023-05-29T02:44:22;8.20;99.90
52859;DHT22;38721;53.098;6.596;2023-05-29T02:46:48;8.10;99.90
52859;DHT22;38721;53.098;6.596;2023-05-29T02:49:14;8.10;99.90
52859;DHT22;38721;53.098;6.596;2023-05-29T02:51:40;8.10;99.90
52859;DHT22;38721;53.098;6.596;2023-05-29T02:54:05;8.10;99.90
52859;DHT22;38721;53.098;6.596;2023-05-29T02:56:31;8.10;99.90
52859;DHT22;38721;53.098;6.596;2023-05-29T02:58:56;8.00;99.90
52859;DHT22;38721;53.098;6.596;2023-05-29T03:01:22;8.00;99.90
52859;DHT22;38721;53.098;6.596;2023-05-29T03:03:48;8.00;99.90
52859;DHT22;38721;53.098;6.596;2023-05-29T03:06:13;8.00;99.90
52859;DHT22;38721;53.098;6.596;2023-05-29T03:08:41;7.90;99.90
52859;DHT22;38721;53.098;6.596;2023-05-29T03:11:13;7.90;99.90
52859;DHT22;38721;53.098;6.596;2023-05-29T03:13:40;7.70;99.90
52859;DHT22;38721;53.098;6.596;2023-05-29T03:16:06;7.70;99.90
52859;DHT22;38721;53.098;6.596;2023-05-29T03:18:33;7.70;99.90
52859;DHT22;38721;53.098;6.596;2023-05-29T03:20:59;7.60;99.90
52859;DHT22;38721;53.098;6.596;2023-05-29T03:23:25;7.60;99.90
52859;DHT22;38721;53.098;6.596;2023-05-29T03:25:51;7.60;99.90
52859;DHT22;38721;53.098;6.596;2023-05-29T03:28:17;7.50;99.90
52859;DHT22;38721;53.098;6.596;2023-05-29T03:30:42;7.50;99.90
52859;DHT22;38721;53.098;6.596;2023-05-29T03:33:08;7.60;99.90
52859;DHT22;38721;53.098;6.596;2023-05-29T03:35:33;7.60;99.90
52859;DHT22;38721;53.098;6.596;2023-05-29T03:37:59;7.70;99.90
52859;DHT22;38721;53.098;6.596;2023-05-29T03:40:25;7.70;99.90
52859;DHT22;38721;53.098;6.596;2023-05-29T03:42:51;7.80;99.90
52859;DHT22;38721;53.098;6.596;2023-05-29T03:45:16;7.80;99.90
52859;DHT22;38721;53.098;6.596;2023-05-29T03:47:42;7.80;99.90
52859;DHT22;38721;53.098;6.596;2023-05-29T03:50:08;7.90;99.90
52859;DHT22;38721;53.098;6.596;2023-05-29T03:52:34;8.10;99.90
52859;DHT22;38721;53.098;6.596;2023-05-29T03:55:00;8.20;99.90
52859;DHT22;38721;53.098;6.596;2023-05-29T03:57:25;8.40;99.90
52859;DHT22;38721;53.098;6.596;2023-05-29T03:59:52;8.40;99.90
52859;DHT22;38721;53.098;6.596;2023-05-29T04:02:18;8.40;99.90
52859;DHT22;38721;53.098;6.596;2023-05-29T04:04:43;8.50;99.90
52859;DHT22;38721;53.098;6.596;2023-05-29T04:07:09;8.40;99.90
52859;DHT22;38721;53.098;6.596;2023-05-29T04:09:35;8.50;99.90
52859;DHT22;38721;53.098;6.596;2023-05-29T04:12:01;8.60;99.90
52859;DHT22;38721;53.098;6.596;2023-05-29T04:14:31;8.60;99.90
52859;DHT22;38721;53.098;6.596;2023-05-29T04:17:00;8.70;99.90
52859;DHT22;38721;53.098;6.596;2023-05-29T04:19:25;8.70;99.90
52859;DHT22;38721;53.098;6.596;2023-05-29T04:21:51;8.70;99.90
52859;DHT22;38721;53.098;6.596;2023-05-29T04:24:16;8.70;99.90
52859;DHT22;38721;53.098;6.596;2023-05-29T04:26:42;8.70;99.90
52859;DHT22;38721;53.098;6.596;2023-05-29T04:29:08;8.80;99.90
52859;DHT22;38721;53.098;6.596;2023-05-29T04:31:34;8.90;99.90
52859;DHT22;38721;53.098;6.596;2023-05-29T04:34:02;8.90;99.90
52859;DHT22;38721;53.098;6.596;2023-05-29T04:36:30;9.00;99.90
52859;DHT22;38721;53.098;6.596;2023-05-29T04:38:58;9.20;99.90
52859;DHT22;38721;53.098;6.596;2023-05-29T04:41:24;9.20;99.90
52859;DHT22;38721;53.098;6.596;2023-05-29T04:43:57;9.30;99.90
52859;DHT22;38721;53.098;6.596;2023-05-29T04:46:24;9.50;99.90
52859;DHT22;38721;53.098;6.596;2023-05-29T04:48:53;9.60;99.90
52859;DHT22;38721;53.098;6.596;2023-05-29T04:51:22;9.60;99.90
52859;DHT22;38721;53.098;6.596;2023-05-29T04:53:49;9.70;99.90
52859;DHT22;38721;53.098;6.596;2023-05-29T04:56:17;9.80;99.90
52859;DHT22;38721;53.098;6.596;2023-05-29T04:58:43;9.90;99.90
52859;DHT22;38721;53.098;6.596;2023-05-29T05:01:09;9.90;99.90
52859;DHT22;38721;53.098;6.596;2023-05-29T05:03:40;9.90;99.90
52859;DHT22;38721;53.098;6.596;2023-05-29T05:06:05;10.10;99.90
52859;DHT22;38721;53.098;6.596;2023-05-29T05:08:35;10.10;99.90
52859;DHT22;38721;53.098;6.596;2023-05-29T05:11:02;10.20;99.90
52859;DHT22;38721;53.098;6.596;2023-05-29T05:13:28;10.30;99.90
52859;DHT22;38721;53.098;6.596;2023-05-29T05:15:54;10.30;99.90
52859;DHT22;38721;53.098;6.596;2023-05-29T05:18:20;10.40;99.90
52859;DHT22;38721;53.098;6.596;2023-05-29T05:20:45;10.60;99.90
52859;DHT22;38721;53.098;6.596;2023-05-29T05:23:11;10.80;99.90
52859;DHT22;38721;53.098;6.596;2023-05-29T05:25:37;10.90;99.90
52859;DHT22;38721;53.098;6.596;2023-05-29T05:28:04;11.00;99.90
52859;DHT22;38721;53.098;6.596;2023-05-29T05:30:30;11.10;99.90
52859;DHT22;38721;53.098;6.596;2023-05-29T05:32:57;11.20;99.90
52859;DHT22;38721;53.098;6.596;2023-05-29T05:35:23;11.20;99.90
52859;DHT22;38721;53.098;6.596;2023-05-29T05:37:49;11.30;99.90
52859;DHT22;38721;53.098;6.596;2023-05-29T05:40:15;11.40;99.90
52859;DHT22;38721;53.098;6.596;2023-05-29T05:42:40;11.30;99.90
52859;DHT22;38721;53.098;6.596;2023-05-29T05:45:06;11.40;99.90
52859;DHT22;38721;53.098;6.596;2023-05-29T05:47:33;11.30;99.90
52859;DHT22;38721;53.098;6.596;2023-05-29T05:49:59;11.50;99.90
52859;DHT22;38721;53.098;6.596;2023-05-29T05:52:28;11.40;99.90
52859;DHT22;38721;53.098;6.596;2023-05-29T05:54:56;11.70;99.90
52859;DHT22;38721;53.098;6.596;2023-05-29T05:57:22;11.90;99.90
52859;DHT22;38721;53.098;6.596;2023-05-29T05:59:48;11.90;99.90
52859;DHT22;38721;53.098;6.596;2023-05-29T06:02:13;12.10;99.90
52859;DHT22;38721;53.098;6.596;2023-05-29T06:04:39;12.00;99.90
52859;DHT22;38721;53.098;6.596;2023-05-29T06:07:08;12.00;99.90
52859;DHT22;38721;53.098;6.596;2023-05-29T06:09:34;11.70;99.90
52859;DHT22;38721;53.098;6.596;2023-05-29T06:12:00;11.80;99.90
52859;DHT22;38721;53.098;6.596;2023-05-29T06:14:26;11.70;99.90
52859;DHT22;38721;53.098;6.596;2023-05-29T06:16:51;11.60;99.90
52859;DHT22;38721;53.098;6.596;2023-05-29T06:19:17;11.50;99.90
52859;DHT22;38721;53.098;6.596;2023-05-29T06:21:43;11.50;99.90
52859;DHT22;38721;53.098;6.596;2023-05-29T06:24:12;11.50;99.90
52859;DHT22;38721;53.098;6.596;2023-05-29T06:26:38;11.70;99.90
52859;DHT22;38721;53.098;6.596;2023-05-29T06:29:04;11.80;99.90
52859;DHT22;38721;53.098;6.596;2023-05-29T06:31:31;11.80;99.90
52859;DHT22;38721;53.098;6.596;2023-05-29T06:33:58;11.60;99.90
52859;DHT22;38721;53.098;6.596;2023-05-29T06:36:24;11.70;99.90
52859;DHT22;38721;53.098;6.596;2023-05-29T06:38:53;11.70;99.90
52859;DHT22;38721;53.098;6.596;2023-05-29T06:41:18;11.60;99.90
52859;DHT22;38721;53.098;6.596;2023-05-29T06:43:47;11.90;99.90
52859;DHT22;38721;53.098;6.596;2023-05-29T06:46:12;11.80;99.90
52859;DHT22;38721;53.098;6.596;2023-05-29T06:48:38;12.00;99.90
52859;DHT22;38721;53.098;6.596;2023-05-29T06:51:07;12.00;99.90
52859;DHT22;38721;53.098;6.596;2023-05-29T06:53:37;11.90;99.90
52859;DHT22;38721;53.098;6.596;2023-05-29T06:56:03;12.30;99.90
52859;DHT22;38721;53.098;6.596;2023-05-29T06:58:30;12.20;99.90
52859;DHT22;38721;53.098;6.596;2023-05-29T07:00:56;12.10;99.90
52859;DHT22;38721;53.098;6.596;2023-05-29T07:03:26;12.30;99.90
52859;DHT22;38721;53.098;6.596;2023-05-29T07:05:55;12.30;99.90
52859;DHT22;38721;53.098;6.596;2023-05-29T07:08:21;12.70;99.90
52859;DHT22;38721;53.098;6.596;2023-05-29T07:10:47;12.90;99.90
52859;DHT22;38721;53.098;6.596;2023-05-29T07:13:15;13.10;99.90
52859;DHT22;38721;53.098;6.596;2023-05-29T07:15:41;13.20;99.90
52859;DHT22;38721;53.098;6.596;2023-05-29T07:18:07;12.70;99.90
52859;DHT22;38721;53.098;6.596;2023-05-29T07:20:33;12.70;99.90
52859;DHT22;38721;53.098;6.596;2023-05-29T07:23:02;12.70;1.00
52859;DHT22;38721;53.098;6.596;2023-05-29T07:25:31;13.20;1.00
52859;DHT22;38721;53.098;6.596;2023-05-29T07:27:58;13.10;99.90
52859;DHT22;38721;53.098;6.596;2023-05-29T07:30:23;13.00;1.00
52859;DHT22;38721;53.098;6.596;2023-05-29T07:32:49;12.90;99.90
52859;DHT22;38721;53.098;6.596;2023-05-29T07:35:15;12.90;99.90
52859;DHT22;38721;53.098;6.596;2023-05-29T07:37:41;12.90;85.80
52859;DHT22;38721;53.098;6.596;2023-05-29T07:40:07;12.90;99.90
52859;DHT22;38721;53.098;6.596;2023-05-29T07:42:35;13.20;99.90
52859;DHT22;38721;53.098;6.596;2023-05-29T07:45:01;13.20;99.90
52859;DHT22;38721;53.098;6.596;2023-05-29T07:47:27;12.80;99.90
52859;DHT22;38721;53.098;6.596;2023-05-29T07:49:53;12.90;99.90
52859;DHT22;38721;53.098;6.596;2023-05-29T07:52:18;13.20;99.90
52859;DHT22;38721;53.098;6.596;2023-05-29T07:54:44;13.20;99.90
52859;DHT22;38721;53.098;6.596;2023-05-29T07:57:10;13.40;99.90
52859;DHT22;38721;53.098;6.596;2023-05-29T07:59:37;13.10;99.90
52859;DHT22;38721;53.098;6.596;2023-05-29T08:02:05;13.20;1.00
52859;DHT22;38721;53.098;6.596;2023-05-29T08:04:31;13.30;99.90
52859;DHT22;38721;53.098;6.596;2023-05-29T08:07:01;13.40;99.90
52859;DHT22;38721;53.098;6.596;2023-05-29T08:09:29;13.70;99.90
52859;DHT22;38721;53.098;6.596;2023-05-29T08:11:55;13.80;99.90
52859;DHT22;38721;53.098;6.596;2023-05-29T08:14:21;13.80;1.00
52859;DHT22;38721;53.098;6.596;2023-05-29T08:16:47;14.30;99.90
52859;DHT22;38721;53.098;6.596;2023-05-29T08:19:12;14.30;99.90
52859;DHT22;38721;53.098;6.596;2023-05-29T08:21:41;13.90;5.70
52859;DHT22;38721;53.098;6.596;2023-05-29T08:24:07;13.60;27.60
52859;DHT22;38721;53.098;6.596;2023-05-29T08:26:32;13.90;16.70
52859;DHT22;38721;53.098;6.596;2023-05-29T08:29:01;14.50;1.00
52859;DHT22;38721;53.098;6.596;2023-05-29T08:31:27;14.00;9.00
52859;DHT22;38721;53.098;6.596;2023-05-29T08:33:53;13.90;99.90
52859;DHT22;38721;53.098;6.596;2023-05-29T08:36:19;14.10;99.90
52859;DHT22;38721;53.098;6.596;2023-05-29T08:38:50;14.40;1.00
52859;DHT22;38721;53.098;6.596;2023-05-29T08:41:31;14.40;99.90
52859;DHT22;38721;53.098;6.596;2023-05-29T08:44:03;14.20;99.90
52859;DHT22;38721;53.098;6.596;2023-05-29T08:46:32;14.20;99.90
52859;DHT22;38721;53.098;6.596;2023-05-29T08:48:58;13.90;7.80
52859;DHT22;38721;53.098;6.596;2023-05-29T08:51:29;13.80;1.00
52859;DHT22;38721;53.098;6.596;2023-05-29T08:53:56;13.70;99.90
52859;DHT22;38721;53.098;6.596;2023-05-29T08:56:23;14.00;1.00
52859;DHT22;38721;53.098;6.596;2023-05-29T08:58:49;13.90;99.90
52859;DHT22;38721;53.098;6.596;2023-05-29T09:01:17;13.80;99.90
52859;DHT22;38721;53.098;6.596;2023-05-29T09:03:42;14.20;99.90
52859;DHT22;38721;53.098;6.596;2023-05-29T09:06:08;14.20;99.90
52859;DHT22;38721;53.098;6.596;2023-05-29T09:08:37;14.60;99.90
52859;DHT22;38721;53.098;6.596;2023-05-29T09:11:04;14.80;99.90
52859;DHT22;38721;53.098;6.596;2023-05-29T09:13:32;14.90;99.90
52859;DHT22;38721;53.098;6.596;2023-05-29T09:15:59;14.40;1.00
52859;DHT22;38721;53.098;6.596;2023-05-29T09:18:31;14.10;99.90
52859;DHT22;38721;53.098;6.596;2023-05-29T09:20:57;14.40;99.90
52859;DHT22;38721;53.098;6.596;2023-05-29T09:23:25;14.50;1.00
52859;DHT22;38721;53.098;6.596;2023-05-29T09:25:52;14.60;99.90
52859;DHT22;38721;53.098;6.596;2023-05-29T09:28:20;14.80;99.90
52859;DHT22;38721;53.098;6.596;2023-05-29T09:30:47;14.70;99.90
52859;DHT22;38721;53.098;6.596;2023-05-29T09:33:14;14.60;99.90
52859;DHT22;38721;53.098;6.596;2023-05-29T09:35:44;14.70;99.00
52859;DHT22;38721;53.098;6.596;2023-05-29T09:38:13;14.70;34.10
52859;DHT22;38721;53.098;6.596;2023-05-29T09:40:40;15.40;99.90
52859;DHT22;38721;53.098;6.596;2023-05-29T09:43:13;14.70;99.90
52859;DHT22;38721;53.098;6.596;2023-05-29T09:45:41;14.60;99.90
52859;DHT22;38721;53.098;6.596;2023-05-29T09:48:33;14.50;99.90
52859;DHT22;38721;53.098;6.596;2023-05-29T09:51:02;14.80;58.50
52859;DHT22;38721;53.098;6.596;2023-05-29T09:53:28;15.10;1.00
52859;DHT22;38721;53.098;6.596;2023-05-29T09:55:57;15.40;99.90
52859;DHT22;38721;53.098;6.596;2023-05-29T09:58:26;15.40;99.90
52859;DHT22;38721;53.098;6.596;2023-05-29T10:00:52;15.80;99.90
52859;DHT22;38721;53.098;6.596;2023-05-29T10:03:19;15.70;1.00
52859;DHT22;38721;53.098;6.596;2023-05-29T10:05:51;15.70;1.00
52859;DHT22;38721;53.098;6.596;2023-05-29T10:08:20;15.50;99.90
52859;DHT22;38721;53.098;6.596;2023-05-29T10:10:48;15.50;1.00
52859;DHT22;38721;53.098;6.596;2023-05-29T10:13:17;16.40;99.90
52859;DHT22;38721;53.098;6.596;2023-05-29T10:15:48;16.20;99.90
52859;DHT22;38721;53.098;6.596;2023-05-29T10:18:41;15.50;99.90
52859;DHT22;38721;53.098;6.596;2023-05-29T10:21:10;15.80;99.90
52859;DHT22;38721;53.098;6.596;2023-05-29T10:23:43;16.40;1.00
52859;DHT22;38721;53.098;6.596;2023-05-29T10:26:27;15.70;99.90
52859;DHT22;38721;53.098;6.596;2023-05-29T10:32:05;15.80;1.00
52859;DHT22;38721;53.098;6.596;2023-05-29T10:34:44;16.20;99.90
52859;DHT22;38721;53.098;6.596;2023-05-29T10:40:14;15.70;99.90
52859;DHT22;38721;53.098;6.596;2023-05-29T10:45:08;16.00;99.90
52859;DHT22;38721;53.098;6.596;2023-05-29T10:47:34;15.30;99.90
52859;DHT22;38721;53.098;6.596;2023-05-29T10:50:01;15.30;99.90
52859;DHT22;38721;53.098;6.596;2023-05-29T10:52:33;15.70;99.90
52859;DHT22;38721;53.098;6.596;2023-05-29T10:54:59;15.50;99.90
52859;DHT22;38721;53.098;6.596;2023-05-29T10:57:29;15.80;99.90
52859;DHT22;38721;53.098;6.596;2023-05-29T11:00:06;16.20;99.90
52859;DHT22;38721;53.098;6.596;2023-05-29T11:02:37;16.70;98.50
52859;DHT22;38721;53.098;6.596;2023-05-29T11:07:56;16.70;99.90
52859;DHT22;38721;53.098;6.596;2023-05-29T11:10:43;16.80;99.90
52859;DHT22;38721;53.098;6.596;2023-05-29T11:13:09;16.80;99.90
52859;DHT22;38721;53.098;6.596;2023-05-29T11:15:36;16.50;99.90
52859;DHT22;38721;53.098;6.596;2023-05-29T11:18:11;15.90;99.90
52859;DHT22;38721;53.098;6.596;2023-05-29T11:20:55;16.00;48.40
52859;DHT22;38721;53.098;6.596;2023-05-29T11:23:31;16.50;99.90
52859;DHT22;38721;53.098;6.596;2023-05-29T11:25:58;16.20;99.90
52859;DHT22;38721;53.098;6.596;2023-05-29T11:28:24;15.50;1.00
52859;DHT22;38721;53.098;6.596;2023-05-29T11:30:53;14.90;1.00
52859;DHT22;38721;53.098;6.596;2023-05-29T11:33:24;15.10;49.40
52859;DHT22;38721;53.098;6.596;2023-05-29T11:35:55;15.60;76.90
52859;DHT22;38721;53.098;6.596;2023-05-29T11:38:22;14.90;99.90
52859;DHT22;38721;53.098;6.596;2023-05-29T11:40:48;14.70;26.70
52859;DHT22;38721;53.098;6.596;2023-05-29T11:43:14;15.30;99.90
52859;DHT22;38721;53.098;6.596;2023-05-29T11:45:39;15.20;94.70
52859;DHT22;38721;53.098;6.596;2023-05-29T11:48:05;16.30;99.90
52859;DHT22;38721;53.098;6.596;2023-05-29T11:50:32;16.10;99.90
52859;DHT22;38721;53.098;6.596;2023-05-29T11:52:59;15.40;97.40
52859;DHT22;38721;53.098;6.596;2023-05-29T11:55:26;15.80;99.90
52859;DHT22;38721;53.098;6.596;2023-05-29T11:58:10;16.60;99.90
52859;DHT22;38721;53.098;6.596;2023-05-29T12:00:37;15.70;1.00
52859;DHT22;38721;53.098;6.596;2023-05-29T12:03:07;15.80;99.90
52859;DHT22;38721;53.098;6.596;2023-05-29T12:05:44;16.10;23.40
52859;DHT22;38721;53.098;6.596;2023-05-29T12:08:11;16.60;95.90
52859;DHT22;38721;53.098;6.596;2023-05-29T12:10:37;16.60;69.40
52859;DHT22;38721;53.098;6.596;2023-05-29T12:13:03;17.20;1.00
52859;DHT22;38721;53.098;6.596;2023-05-29T12:15:28;16.40;99.90
52859;DHT22;38721;53.098;6.596;2023-05-29T12:17:55;16.60;99.90
52859;DHT22;38721;53.098;6.596;2023-05-29T12:20:23;16.60;99.90
52859;DHT22;38721;53.098;6.596;2023-05-29T12:22:49;16.40;99.90
52859;DHT22;38721;53.098;6.596;2023-05-29T12:25:19;16.90;99.90
52859;DHT22;38721;53.098;6.596;2023-05-29T12:27:46;17.90;99.90
52859;DHT22;38721;53.098;6.596;2023-05-29T12:30:14;17.50;99.90
52859;DHT22;38721;53.098;6.596;2023-05-29T12:32:45;17.40;99.90
52859;DHT22;38721;53.098;6.596;2023-05-29T12:35:17;17.00;99.90
52859;DHT22;38721;53.098;6.596;2023-05-29T12:37:47;17.60;99.90
52859;DHT22;38721;53.098;6.596;2023-05-29T12:40:17;16.70;1.00
52859;DHT22;38721;53.098;6.596;2023-05-29T12:42:44;16.60;1.00
52859;DHT22;38721;53.098;6.596;2023-05-29T12:45:11;16.70;99.90
52859;DHT22;38721;53.098;6.596;2023-05-29T12:47:44;17.10;99.90
52859;DHT22;38721;53.098;6.596;2023-05-29T12:53:08;16.80;99.90
52859;DHT22;38721;53.098;6.596;2023-05-29T12:55:41;17.10;99.90
52859;DHT22;38721;53.098;6.596;2023-05-29T12:58:11;17.10;99.90
52859;DHT22;38721;53.098;6.596;2023-05-29T13:00:42;16.70;1.00
52859;DHT22;38721;53.098;6.596;2023-05-29T13:03:08;16.30;1.00
52859;DHT22;38721;53.098;6.596;2023-05-29T13:05:35;16.60;99.90
52859;DHT22;38721;53.098;6.596;2023-05-29T13:08:01;16.40;1.00
52859;DHT22;38721;53.098;6.596;2023-05-29T13:10:27;17.20;1.00
52859;DHT22;38721;53.098;6.596;2023-05-29T13:12:54;16.90;1.00
52859;DHT22;38721;53.098;6.596;2023-05-29T13:15:23;18.00;99.90
52859;DHT22;38721;53.098;6.596;2023-05-29T13:17:50;16.90;99.90
52859;DHT22;38721;53.098;6.596;2023-05-29T13:20:16;17.60;99.90
52859;DHT22;38721;53.098;6.596;2023-05-29T13:22:48;17.30;99.90
52859;DHT22;38721;53.098;6.596;2023-05-29T13:25:15;16.70;99.90
52859;DHT22;38721;53.098;6.596;2023-05-29T13:27:43;17.40;99.90
52859;DHT22;38721;53.098;6.596;2023-05-29T13:30:10;17.20;99.90
52859;DHT22;38721;53.098;6.596;2023-05-29T13:32:40;16.70;99.90
52859;DHT22;38721;53.098;6.596;2023-05-29T13:35:06;17.30;99.90
52859;DHT22;38721;53.098;6.596;2023-05-29T13:37:32;16.90;99.90
52859;DHT22;38721;53.098;6.596;2023-05-29T13:39:57;16.80;99.90
52859;DHT22;38721;53.098;6.596;2023-05-29T13:42:23;16.90;99.90
52859;DHT22;38721;53.098;6.596;2023-05-29T13:44:50;17.20;99.90
52859;DHT22;38721;53.098;6.596;2023-05-29T13:47:16;17.50;99.90
52859;DHT22;38721;53.098;6.596;2023-05-29T13:49:42;17.80;99.90
52859;DHT22;38721;53.098;6.596;2023-05-29T13:52:08;17.10;99.90
52859;DHT22;38721;53.098;6.596;2023-05-29T13:54:34;17.60;99.90
52859;DHT22;38721;53.098;6.596;2023-05-29T13:57:03;17.70;99.90
52859;DHT22;38721;53.098;6.596;2023-05-29T13:59:35;17.80;99.90
52859;DHT22;38721;53.098;6.596;2023-05-29T14:02:01;17.90;71.70
52859;DHT22;38721;53.098;6.596;2023-05-29T14:04:29;17.10;89.40
52859;DHT22;38721;53.098;6.596;2023-05-29T14:06:55;17.60;60.60
52859;DHT22;38721;53.098;6.596;2023-05-29T14:09:21;17.70;21.10
52859;DHT22;38721;53.098;6.596;2023-05-29T14:11:54;17.40;71.00
52859;DHT22;38721;53.098;6.596;2023-05-29T14:14:20;17.60;1.00
52859;DHT22;38721;53.098;6.596;2023-05-29T14:16:46;17.90;60.90
52859;DHT22;38721;53.098;6.596;2023-05-29T14:19:11;18.40;51.60
52859;DHT22;38721;53.098;6.596;2023-05-29T14:21:37;19.10;99.90
52859;DHT22;38721;53.098;6.596;2023-05-29T14:24:03;18.90;50.30
52859;DHT22;38721;53.098;6.596;2023-05-29T14:26:28;17.60;1.00
52859;DHT22;38721;53.098;6.596;2023-05-29T14:28:54;17.90;1.00
52859;DHT22;38721;53.098;6.596;2023-05-29T14:31:21;19.20;53.40
52859;DHT22;38721;53.098;6.596;2023-05-29T14:33:47;19.80;16.10
52859;DHT22;38721;53.098;6.596;2023-05-29T14:36:13;18.00;1.00
52859;DHT22;38721;53.098;6.596;2023-05-29T14:38:38;17.90;99.90
52859;DHT22;38721;53.098;6.596;2023-05-29T14:41:04;18.10;99.90
52859;DHT22;38721;53.098;6.596;2023-05-29T14:43:29;18.50;1.00
52859;DHT22;38721;53.098;6.596;2023-05-29T14:45:55;18.30;1.00
52859;DHT22;38721;53.098;6.596;2023-05-29T14:48:21;18.50;99.90
52859;DHT22;38721;53.098;6.596;2023-05-29T14:50:47;17.40;99.90
52859;DHT22;38721;53.098;6.596;2023-05-29T14:53:12;17.20;99.90
52859;DHT22;38721;53.098;6.596;2023-05-29T14:55:41;17.60;99.90
52859;DHT22;38721;53.098;6.596;2023-05-29T14:58:07;18.20;1.00
52859;DHT22;38721;53.098;6.596;2023-05-29T15:00:32;18.60;99.90
52859;DHT22;38721;53.098;6.596;2023-05-29T15:02:58;17.80;99.90
52859;DHT22;38721;53.098;6.596;2023-05-29T15:05:28;17.40;99.90
52859;DHT22;38721;53.098;6.596;2023-05-29T15:07:56;18.10;99.90
52859;DHT22;38721;53.098;6.596;2023-05-29T15:10:24;18.50;99.90
52859;DHT22;38721;53.098;6.596;2023-05-29T15:12:51;18.00;99.90
52859;DHT22;38721;53.098;6.596;2023-05-29T15:15:23;19.10;99.90
52859;DHT22;38721;53.098;6.596;2023-05-29T15:17:49;19.20;99.90
52859;DHT22;38721;53.098;6.596;2023-05-29T15:20:19;18.70;99.90
52859;DHT22;38721;53.098;6.596;2023-05-29T15:22:46;20.20;99.90
52859;DHT22;38721;53.098;6.596;2023-05-29T15:25:11;21.00;99.90
52859;DHT22;38721;53.098;6.596;2023-05-29T15:27:37;21.60;99.90
52859;DHT22;38721;53.098;6.596;2023-05-29T15:32:40;21.40;99.90
52859;DHT22;38721;53.098;6.596;2023-05-29T15:35:07;19.90;99.90
52859;DHT22;38721;53.098;6.596;2023-05-29T15:37:33;21.40;99.90
52859;DHT22;38721;53.098;6.596;2023-05-29T15:39:59;21.60;99.90
52859;DHT22;38721;53.098;6.596;2023-05-29T15:42:25;24.10;99.90
52859;DHT22;38721;53.098;6.596;2023-05-29T15:44:51;21.90;99.90
52859;DHT22;38721;53.098;6.596;2023-05-29T15:47:17;20.80;99.90
52859;DHT22;38721;53.098;6.596;2023-05-29T15:49:42;20.30;99.90
52859;DHT22;38721;53.098;6.596;2023-05-29T15:52:08;19.70;99.90
52859;DHT22;38721;53.098;6.596;2023-05-29T15:54:33;18.30;99.90
52859;DHT22;38721;53.098;6.596;2023-05-29T15:56:59;17.20;99.90
52859;DHT22;38721;53.098;6.596;2023-05-29T15:59:31;17.20;99.90
52859;DHT22;38721;53.098;6.596;2023-05-29T16:01:57;17.90;99.90
52859;DHT22;38721;53.098;6.596;2023-05-29T16:04:22;18.70;99.90
52859;DHT22;38721;53.098;6.596;2023-05-29T16:06:48;19.40;99.90